Airfield :
LOGIN :

Register | Disclaimer

   EN    FR    IT 

 










Legend :    VFR   Marginal VFR   IFR   Intensive IFR   Very Intensive IFR
Visi :
Ceiling :
>= 8 km
>= 3000ft
5 to 8 km
1000 to 3000 ft
1500m to 5 km
500 to 1000 ft
800 to 1500m
200 to 500 ft
< 800m
< 200 ft
Symbols :   Thunderstorms  Fog  Heavy snow  Heavy precipitations  Wind > 20 kt
SIGMETs :     Misc.  Thunderstorms  Icing  Turbulence  Mountain Waves  Volcanic Ashes






- Airport Elevation : 124 ft
- IATA code : AVN


LFMV - Avignon Caumont

CURRENT METAR :
  • 300230Z AUTO VRB03KT 9999 NSC 03/02 Q1016

EXPIRED METARs :
  • 300200Z AUTO 15004KT 9999 NSC 02/00 Q1016
  • 300130Z AUTO 15005KT 9999 NSC 02/01 Q1016
  • 300100Z AUTO VRB03KT 9999 NSC 05/02 Q1016
  • 300030Z AUTO 01006KT 330V030 9999 NSC 07/04 Q1015
  • 300000Z AUTO 36007KT 330V030 9999 NSC 08/04 Q1016

TAF TAF LFMV
Valid from the 29 at 15:00 until the 30 at 15:00 UTC


291400Z 2915/3015 34015KT CAVOK
TEMPO 2915/2919 33020G30KT
BECMG 2920/2922 36010KT
ATIS : +33 4 90 84 32 84



MET'MAP, your aeronautical weather chart ! - Copyright ORBIFLY December 2007 - Disclaimer

ORBIFLY MET'MAP TEAM :

Programming & Development : Alexandra Zaïnal
Original concept : Baudouin d'Aumeries
Technical & hardware support : Manuel Goepfert
Assistance : Marc-Olivier Méhu




SOURCES & CREDITS :

   NOAA